createdAt,value
2023-04-28T00:01:00.698Z,11.77
2023-04-28T00:04:04.887Z,12.57
2023-04-28T00:07:08.580Z,11.68
2023-04-28T00:10:12.528Z,12.27
2023-04-28T00:13:15.908Z,13.65
2023-04-28T00:16:19.401Z,13.02
2023-04-28T00:19:23.032Z,12.45
2023-04-28T00:22:26.406Z,12.00
2023-04-28T00:25:29.879Z,11.00
2023-04-28T00:28:35.005Z,11.20
2023-04-28T00:31:38.904Z,11.13
2023-04-28T00:34:42.390Z,10.40
2023-04-28T00:37:52.475Z,10.13
2023-04-28T00:40:56.052Z,9.98
2023-04-28T00:43:59.515Z,9.10
2023-04-28T00:47:02.920Z,9.38
2023-04-28T00:50:07.229Z,10.40
2023-04-28T00:53:12.127Z,9.93
2023-04-28T00:56:16.363Z,9.73
2023-04-28T00:59:19.748Z,9.52
2023-04-28T01:02:23.499Z,8.85
2023-04-28T01:05:27.992Z,9.43
2023-04-28T01:08:32.552Z,9.85
2023-04-28T01:11:38.219Z,8.30
2023-04-28T01:14:52.178Z,9.27
2023-04-28T01:17:56.292Z,8.38
2023-04-28T01:21:05.136Z,7.40
2023-04-28T01:24:08.828Z,7.95
2023-04-28T01:27:12.697Z,8.98
2023-04-28T01:30:18.246Z,7.43
2023-04-28T01:33:21.934Z,8.27
2023-04-28T01:36:25.560Z,7.45
2023-04-28T01:39:28.977Z,7.63
2023-04-28T01:42:32.656Z,7.85
2023-04-28T01:45:38.214Z,7.72
2023-04-28T01:48:41.691Z,8.00
2023-04-28T01:51:45.046Z,8.38
2023-04-28T01:54:49.013Z,7.68
2023-04-28T01:57:52.718Z,8.05
2023-04-28T02:00:59.865Z,9.05
2023-04-28T02:04:28.439Z,6.72
2023-04-28T02:07:34.977Z,7.00
2023-04-28T02:10:40.086Z,4.35
2023-04-28T02:13:43.491Z,4.18
2023-04-28T02:16:47.337Z,6.07
2023-04-28T02:20:06.683Z,3.55
2023-04-28T02:23:20.577Z,4.75
2023-04-28T02:26:25.830Z,4.55
2023-04-28T02:29:30.813Z,4.07
2023-04-28T02:32:35.345Z,2.05
2023-04-28T02:35:39.063Z,1.65
2023-04-28T02:38:43.177Z,2.63
2023-04-28T02:41:50.685Z,2.92
2023-04-28T02:44:55.735Z,1.60
2023-04-28T02:48:05.560Z,2.03
2023-04-28T02:51:11.843Z,2.40
2023-04-28T02:54:16.242Z,1.60
2023-04-28T02:57:23.264Z,2.17
2023-04-28T03:00:33.095Z,1.95
2023-04-28T03:03:42.998Z,2.90
2023-04-28T03:06:49.409Z,1.98
2023-04-28T03:09:56.245Z,2.00
2023-04-28T03:13:30.441Z,1.65
2023-04-28T03:16:35.054Z,1.77
2023-04-28T03:19:38.926Z,2.28
2023-04-28T03:22:42.486Z,3.78
2023-04-28T03:25:46.331Z,2.30
2023-04-28T03:28:49.781Z,2.78
2023-04-28T03:31:54.174Z,1.90
2023-04-28T03:35:23.247Z,2.25
2023-04-28T03:38:29.639Z,2.30
2023-04-28T03:41:33.153Z,2.80
2023-04-28T03:44:55.303Z,3.17
2023-04-28T03:47:58.771Z,3.40
2023-04-28T03:51:02.787Z,2.22
2023-04-28T03:54:06.396Z,4.03
2023-04-28T03:57:09.791Z,1.95
2023-04-28T04:00:17.896Z,2.63
2023-04-28T04:03:28.378Z,2.35
2023-04-28T04:06:38.860Z,1.80
2023-04-28T04:10:04.858Z,1.60
2023-04-28T04:13:16.499Z,1.75
2023-04-28T04:16:24.587Z,1.58
2023-04-28T04:19:32.914Z,1.77
2023-04-28T04:22:37.253Z,2.00
2023-04-28T04:25:43.764Z,2.45
2023-04-28T04:29:12.825Z,1.67
2023-04-28T04:32:16.343Z,1.75
2023-04-28T04:35:20.066Z,1.83
2023-04-28T04:38:23.714Z,2.50
2023-04-28T04:41:27.757Z,1.95
2023-04-28T04:44:48.502Z,2.40
2023-04-28T04:48:06.037Z,2.20
2023-04-28T04:51:09.589Z,1.60
2023-04-28T04:54:13.100Z,2.03
2023-04-28T05:00:43.178Z,1.75
2023-04-28T05:03:47.958Z,2.22
2023-04-28T05:06:51.416Z,2.35
2023-04-28T05:10:01.326Z,1.35
2023-04-28T05:13:07.037Z,2.75
2023-04-28T05:16:10.880Z,2.10
2023-04-28T05:19:43.368Z,1.80
2023-04-28T05:22:47.382Z,2.78
2023-04-28T05:25:50.858Z,3.08
2023-04-28T05:28:58.533Z,1.70
2023-04-28T05:32:02.586Z,3.25
2023-04-28T05:35:06.362Z,2.50
2023-04-28T05:38:10.262Z,2.42
2023-04-28T05:41:13.696Z,3.22
2023-04-28T05:44:21.992Z,1.70
2023-04-28T05:47:25.674Z,2.00
2023-04-28T05:50:29.243Z,2.00
2023-04-28T05:53:35.772Z,2.40
2023-04-28T05:56:41.922Z,1.70
2023-04-28T05:59:49.650Z,1.88
2023-04-28T06:06:39.600Z,2.15
2023-04-28T06:09:44.603Z,1.95
2023-04-28T06:12:48.055Z,2.03
2023-04-28T06:15:54.050Z,2.05
2023-04-28T06:18:57.528Z,2.38
2023-04-28T06:22:03.447Z,1.60
2023-04-28T06:25:07.430Z,6.30
2023-04-28T06:28:19.863Z,1.70
2023-04-28T06:31:27.275Z,2.42
2023-04-28T06:34:31.833Z,1.85
2023-04-28T06:37:42.855Z,2.70
2023-04-28T06:40:46.841Z,2.22
2023-04-28T06:43:55.114Z,2.03
2023-04-28T06:50:06.810Z,2.20
2023-04-28T06:53:12.558Z,3.28
2023-04-28T06:56:16.059Z,3.70
2023-04-28T06:59:33.003Z,3.53
2023-04-28T07:02:37.684Z,2.80
2023-04-28T07:05:44.223Z,2.13
2023-04-28T07:08:51.611Z,1.70
2023-04-28T07:11:55.180Z,1.92
2023-04-28T07:14:59.749Z,2.50
2023-04-28T07:18:03.157Z,2.33
2023-04-28T07:21:07.178Z,2.90
2023-04-28T07:24:15.703Z,2.42
2023-04-28T07:27:19.342Z,1.55
2023-04-28T07:30:28.478Z,2.55
2023-04-28T07:33:32.134Z,2.40
2023-04-28T07:36:35.741Z,1.85
2023-04-28T07:39:41.109Z,2.30
2023-04-28T07:42:44.816Z,2.53
2023-04-28T07:45:59.861Z,2.65
2023-04-28T07:49:03.813Z,2.13
2023-04-28T07:52:07.171Z,3.45
2023-04-28T07:55:10.569Z,2.60
2023-04-28T07:58:14.170Z,3.97
2023-04-28T08:01:17.586Z,4.43
2023-04-28T08:04:21.769Z,2.03
2023-04-28T08:07:25.678Z,1.83
2023-04-28T08:10:31.859Z,2.83
2023-04-28T08:13:35.565Z,2.75
2023-04-28T08:16:41.395Z,2.22
2023-04-28T08:19:47.064Z,1.80
2023-04-28T08:22:53.650Z,2.70
2023-04-28T08:25:59.947Z,3.08
2023-04-28T08:29:12.900Z,2.80
2023-04-28T08:35:37.788Z,3.08
2023-04-28T08:38:42.892Z,3.85
2023-04-28T08:41:46.829Z,1.88
2023-04-28T08:44:52.220Z,2.88
2023-04-28T08:47:57.686Z,3.35
2023-04-28T08:51:02.858Z,2.97
2023-04-28T08:57:13.412Z,2.60
2023-04-28T09:00:29.315Z,1.98
2023-04-28T09:03:35.904Z,1.92
2023-04-28T09:06:40.352Z,2.03
2023-04-28T09:09:47.032Z,2.20
2023-04-28T09:13:05.200Z,3.08
2023-04-28T09:16:12.461Z,2.10
2023-04-28T09:19:19.863Z,3.65
2023-04-28T09:25:33.084Z,2.38
2023-04-28T09:28:38.272Z,3.17
2023-04-28T09:31:45.380Z,3.90
2023-04-28T09:34:59.011Z,2.28
2023-04-28T09:38:02.730Z,2.45
2023-04-28T09:41:06.209Z,2.28
2023-04-28T09:44:22.127Z,2.97
2023-04-28T09:47:26.297Z,2.53
2023-04-28T09:50:41.915Z,3.28
2023-04-28T09:53:45.278Z,2.90
2023-04-28T09:56:49.061Z,2.28
2023-04-28T09:59:53.867Z,3.10
2023-04-28T10:02:58.206Z,8.57
2023-04-28T10:06:03.530Z,9.80
2023-04-28T10:09:07.088Z,6.15
2023-04-28T10:12:14.239Z,4.55
2023-04-28T10:18:23.388Z,5.15
2023-04-28T10:21:34.650Z,7.05
2023-04-28T10:25:12.535Z,5.75
2023-04-28T10:28:16.635Z,7.70
2023-04-28T10:31:25.788Z,4.97
2023-04-28T10:34:33.507Z,5.72
2023-04-28T10:38:14.287Z,6.70
2023-04-28T10:41:34.304Z,5.28
2023-04-28T10:44:37.770Z,6.18
2023-04-28T10:48:06.956Z,8.55
2023-04-28T10:51:16.237Z,6.95
2023-04-28T10:54:20.509Z,5.88
2023-04-28T10:57:24.001Z,8.38
2023-04-28T11:00:33.939Z,6.55
2023-04-28T11:04:01.552Z,7.63
2023-04-28T11:07:15.185Z,7.07
2023-04-28T11:10:18.692Z,9.13
2023-04-28T11:13:32.451Z,8.27
2023-04-28T11:16:49.145Z,9.57
2023-04-28T11:19:54.230Z,8.82
2023-04-28T11:22:58.018Z,6.05
2023-04-28T11:26:01.344Z,7.45
2023-04-28T11:29:05.059Z,5.35
2023-04-28T11:32:10.928Z,6.10
2023-04-28T11:35:14.264Z,5.13
2023-04-28T11:38:17.676Z,4.65
2023-04-28T11:41:21.376Z,4.05
2023-04-28T11:44:30.073Z,28.15
2023-04-28T11:47:35.573Z,4.78
2023-04-28T11:50:39.613Z,4.60
2023-04-28T11:53:56.047Z,7.85
2023-04-28T11:57:01.806Z,4.22
2023-04-28T12:00:20.190Z,4.18
2023-04-28T12:03:23.693Z,5.38
2023-04-28T12:06:27.501Z,5.63
2023-04-28T12:09:31.645Z,5.60
2023-04-28T12:12:48.946Z,4.90
2023-04-28T12:15:55.026Z,5.80
2023-04-28T12:19:01.635Z,8.15
2023-04-28T12:22:07.232Z,7.00
2023-04-28T12:25:12.648Z,5.43
2023-04-28T12:28:18.637Z,4.88
2023-04-28T12:31:31.506Z,8.43
2023-04-28T12:34:34.957Z,4.57
2023-04-28T12:37:42.315Z,6.47
2023-04-28T12:43:49.075Z,6.60
2023-04-28T12:46:53.297Z,6.25
2023-04-28T12:49:59.788Z,7.00
2023-04-28T12:53:03.268Z,8.05
2023-04-28T12:56:06.948Z,6.57
2023-04-28T12:59:11.182Z,7.20
2023-04-28T13:02:16.057Z,5.88
2023-04-28T13:05:20.620Z,7.28
2023-04-28T13:08:28.697Z,6.80
2023-04-28T13:11:33.314Z,11.27
2023-04-28T13:14:37.481Z,7.82
2023-04-28T13:17:41.324Z,6.28
2023-04-28T13:20:44.894Z,8.98
2023-04-28T13:23:48.192Z,7.80
2023-04-28T13:26:52.873Z,6.03
2023-04-28T13:30:00.943Z,8.52
2023-04-28T13:33:04.354Z,4.68
2023-04-28T13:36:09.184Z,5.80
2023-04-28T13:39:15.143Z,5.75
2023-04-28T13:42:18.514Z,6.25
2023-04-28T13:45:28.477Z,6.90
2023-04-28T13:48:31.937Z,8.50
2023-04-28T13:51:39.940Z,6.50
2023-04-28T13:54:43.532Z,6.15
2023-04-28T13:57:46.841Z,8.52
2023-04-28T14:00:50.343Z,5.80
2023-04-28T14:03:54.162Z,5.65
2023-04-28T14:06:57.653Z,7.53
2023-04-28T14:10:01.189Z,5.68
2023-04-28T14:13:04.492Z,6.57
2023-04-28T14:16:08.249Z,5.70
2023-04-28T14:19:13.586Z,8.20
2023-04-28T14:22:17.320Z,7.25
2023-04-28T14:25:23.984Z,6.80
2023-04-28T14:28:27.655Z,5.93
2023-04-28T14:31:30.929Z,6.10
2023-04-28T14:34:34.253Z,6.18
2023-04-28T14:37:37.777Z,4.82
2023-04-28T14:40:41.184Z,5.13
2023-04-28T14:43:45.319Z,6.30
2023-04-28T14:46:49.469Z,6.00
2023-04-28T14:49:56.000Z,5.18
2023-04-28T14:53:05.924Z,5.03
2023-04-28T14:59:20.369Z,5.88
2023-04-28T15:02:29.820Z,8.40
2023-04-28T15:05:33.220Z,7.00
2023-04-28T15:08:36.673Z,4.88
2023-04-28T15:11:40.041Z,5.65
2023-04-28T15:14:43.568Z,4.57
2023-04-28T15:17:47.000Z,5.30
2023-04-28T15:20:50.577Z,5.68
2023-04-28T15:23:53.882Z,6.82
2023-04-28T15:27:04.985Z,6.15
2023-04-28T15:30:09.353Z,8.38
2023-04-28T15:33:18.352Z,8.30
2023-04-28T15:36:22.040Z,7.63
2023-04-28T15:39:26.340Z,9.18
2023-04-28T15:42:30.147Z,9.93
2023-04-28T15:45:35.071Z,15.57
2023-04-28T15:48:41.938Z,10.73
2023-04-28T15:51:45.881Z,8.82
2023-04-28T15:54:49.360Z,10.63
2023-04-28T15:57:53.553Z,9.50
2023-04-28T16:00:58.094Z,9.40
2023-04-28T16:04:02.097Z,8.30
2023-04-28T16:07:05.714Z,8.18
2023-04-28T16:10:17.203Z,7.85
2023-04-28T16:13:20.665Z,7.78
2023-04-28T16:16:25.423Z,8.30
2023-04-28T16:19:29.002Z,6.47
2023-04-28T16:22:32.677Z,8.38
2023-04-28T16:25:37.187Z,8.98
2023-04-28T16:28:40.582Z,7.43
2023-04-28T16:31:45.415Z,8.32
2023-04-28T16:34:49.890Z,10.85
2023-04-28T16:37:55.206Z,12.48
2023-04-28T16:40:58.504Z,9.15
2023-04-28T16:44:02.174Z,10.38
2023-04-28T16:47:06.136Z,9.15
2023-04-28T16:50:12.026Z,10.10
2023-04-28T16:53:15.465Z,9.55
2023-04-28T16:56:18.841Z,10.48
2023-04-28T16:59:27.075Z,10.25
2023-04-28T17:02:30.624Z,10.90
2023-04-28T17:05:34.184Z,10.77
2023-04-28T17:08:37.655Z,9.52
2023-04-28T17:11:41.080Z,10.52
2023-04-28T17:14:44.477Z,8.98
2023-04-28T17:17:53.737Z,8.15
2023-04-28T17:20:58.459Z,8.52
2023-04-28T17:24:02.367Z,7.68
2023-04-28T17:27:05.710Z,8.75
2023-04-28T17:30:14.079Z,8.45
2023-04-28T17:33:18.267Z,7.53
2023-04-28T17:36:24.050Z,8.65
2023-04-28T17:39:27.490Z,8.48
2023-04-28T17:42:33.982Z,9.02
2023-04-28T17:45:37.400Z,8.95
2023-04-28T17:48:40.667Z,10.32
2023-04-28T17:51:43.961Z,10.73
2023-04-28T17:54:47.818Z,8.02
2023-04-28T17:57:52.615Z,7.55
2023-04-28T18:01:07.408Z,8.15
2023-04-28T18:04:10.796Z,7.38
2023-04-28T18:07:14.151Z,7.47
2023-04-28T18:10:17.829Z,6.60
2023-04-28T18:13:21.243Z,6.57
2023-04-28T18:16:24.620Z,6.45
2023-04-28T18:19:28.921Z,7.25
2023-04-28T18:22:32.538Z,7.40
2023-04-28T18:25:37.297Z,8.10
2023-04-28T18:28:40.672Z,8.05
2023-04-28T18:31:44.091Z,7.40
2023-04-28T18:34:48.164Z,9.13
2023-04-28T18:37:51.638Z,8.90
2023-04-28T18:40:55.052Z,11.65
2023-04-28T18:43:59.205Z,12.30
2023-04-28T18:47:05.581Z,17.52
2023-04-28T18:50:15.480Z,16.52
2023-04-28T18:53:21.802Z,15.27
2023-04-28T18:56:28.430Z,15.70
2023-04-28T18:59:35.519Z,13.45
2023-04-28T19:02:43.073Z,13.98
2023-04-28T19:05:52.622Z,12.77
2023-04-28T19:08:59.111Z,11.38
2023-04-28T19:12:05.776Z,8.90
2023-04-28T19:15:09.413Z,10.25
2023-04-28T19:18:13.882Z,9.10
2023-04-28T19:21:17.254Z,8.75
2023-04-28T19:24:20.543Z,7.90
2023-04-28T19:27:23.981Z,9.27
2023-04-28T19:30:27.517Z,8.52
2023-04-28T19:33:36.978Z,8.57
2023-04-28T19:36:40.303Z,8.00
2023-04-28T19:39:55.924Z,7.22
2023-04-28T19:43:02.440Z,8.73
2023-04-28T19:46:06.554Z,7.50
2023-04-28T19:49:35.869Z,7.15
2023-04-28T19:52:39.261Z,8.02
2023-04-28T19:55:45.701Z,9.35
2023-04-28T19:58:52.820Z,10.95
2023-04-28T20:01:56.321Z,8.90
2023-04-28T20:04:59.966Z,10.25
2023-04-28T20:08:29.117Z,9.15
2023-04-28T20:11:33.532Z,10.07
2023-04-28T20:14:40.081Z,10.70
2023-04-28T20:17:43.891Z,11.07
2023-04-28T20:20:52.760Z,10.05
2023-04-28T20:23:59.650Z,9.57
2023-04-28T20:27:04.105Z,10.77
2023-04-28T20:30:12.211Z,10.32
2023-04-28T20:33:19.285Z,15.02
2023-04-28T20:36:25.668Z,16.00
2023-04-28T20:39:34.081Z,17.80
2023-04-28T20:42:40.456Z,19.00
2023-04-28T20:45:43.768Z,18.38
2023-04-28T20:48:50.225Z,17.17
2023-04-28T20:52:04.588Z,19.42
2023-04-28T20:55:09.171Z,18.35
2023-04-28T20:58:15.518Z,19.50
2023-04-28T21:01:19.117Z,21.90
2023-04-28T21:04:22.557Z,18.98
2023-04-28T21:07:31.070Z,17.50
2023-04-28T21:10:34.424Z,12.50
2023-04-28T21:13:37.761Z,12.07
2023-04-28T21:16:44.198Z,11.38
2023-04-28T21:19:51.188Z,9.27
2023-04-28T21:22:59.131Z,10.52
2023-04-28T21:29:05.762Z,9.32
2023-04-28T21:32:09.178Z,8.60
2023-04-28T21:35:12.732Z,9.30
2023-04-28T21:38:18.991Z,8.48
2023-04-28T21:41:22.428Z,9.32
2023-04-28T21:44:26.587Z,13.15
2023-04-28T21:47:30.635Z,10.35
2023-04-28T21:50:42.398Z,10.95
2023-04-28T21:53:45.694Z,9.63
2023-04-28T21:56:54.018Z,11.00
2023-04-28T21:59:57.544Z,10.80
2023-04-28T22:03:05.734Z,12.43
2023-04-28T22:06:09.754Z,19.00
2023-04-28T22:09:17.571Z,41.20
2023-04-28T22:12:21.128Z,33.15
2023-04-28T22:15:36.001Z,25.92
2023-04-28T22:18:39.708Z,25.52
2023-04-28T22:21:47.400Z,25.60
2023-04-28T22:28:10.499Z,20.30
2023-04-28T22:31:14.723Z,20.95
2023-04-28T22:34:26.333Z,26.30
2023-04-28T22:37:29.664Z,26.73
2023-04-28T22:40:36.184Z,18.75
2023-04-28T22:43:39.586Z,22.63
2023-04-28T22:46:46.145Z,25.70
2023-04-28T22:49:50.384Z,26.10
2023-04-28T22:52:57.207Z,24.83
2023-04-28T22:56:03.827Z,26.92
2023-04-28T22:59:10.294Z,24.73
2023-04-28T23:02:16.221Z,29.33
2023-04-28T23:05:19.717Z,23.80
2023-04-28T23:08:26.303Z,25.77
2023-04-28T23:11:29.623Z,24.10
2023-04-28T23:14:33.977Z,27.80
2023-04-28T23:17:46.511Z,22.60
2023-04-28T23:20:54.692Z,23.55
2023-04-28T23:24:00.856Z,23.00
2023-04-28T23:27:04.441Z,25.35
2023-04-28T23:30:11.341Z,22.90
2023-04-28T23:33:18.353Z,21.02
2023-04-28T23:36:21.646Z,21.33
2023-04-28T23:39:25.683Z,21.90
2023-04-28T23:42:29.705Z,19.73
2023-04-28T23:45:36.649Z,21.25
2023-04-28T23:48:39.917Z,19.65
2023-04-28T23:52:08.601Z,20.77
2023-04-28T23:55:16.007Z,17.67
2023-04-28T23:58:19.688Z,16.50
